Terminal Aerodrome Forecast
Issued by NWS

Home | Current Version | Previous Version | Text Only | Print | Product List | Glossary On
Versions: 1 2 3 4 5 6 7 8 9 10 11 12 13 14 15 16 17
000
FTUS43 KDMX 241141
TAFOTM
TAF
KOTM 241141Z 2412/2512 15014KT P6SM -TSRA OVC050CB
     FM241300 15015KT P6SM VCSH OVC050
     FM241500 15014KT P6SM -TSRA SCT015 OVC025CB
     FM242300 34011KT P6SM VCSH BKN030
     FM250300 32009KT P6SM SCT120=

USA.gov is the U.S. government's official web portal to all federal, state and local government web resources and services.